sensor_id;sensor_type;location;lat;lon;timestamp;P1;durP1;ratioP1;P2;durP2;ratioP2
34296;SDS011;20564;42.902;25.336;2023-12-20T00:01:30;0.00;;;0.00;;
34296;SDS011;20564;42.902;25.336;2023-12-20T00:03:57;0.13;;;0.13;;
34296;SDS011;20564;42.902;25.336;2023-12-20T00:06:25;0.25;;;0.15;;
34296;SDS011;20564;42.902;25.336;2023-12-20T00:08:52;0.10;;;0.10;;
34296;SDS011;20564;42.902;25.336;2023-12-20T00:11:21;1.17;;;0.95;;
34296;SDS011;20564;42.902;25.336;2023-12-20T00:13:48;1.10;;;1.00;;
34296;SDS011;20564;42.902;25.336;2023-12-20T00:16:17;4.50;;;0.95;;
34296;SDS011;20564;42.902;25.336;2023-12-20T00:18:44;0.85;;;0.25;;
34296;SDS011;20564;42.902;25.336;2023-12-20T00:21:14;1.75;;;0.90;;
34296;SDS011;20564;42.902;25.336;2023-12-20T00:23:41;0.00;;;0.00;;
34296;SDS011;20564;42.902;25.336;2023-12-20T00:26:09;0.00;;;0.00;;
34296;SDS011;20564;42.902;25.336;2023-12-20T00:28:36;0.38;;;0.28;;
34296;SDS011;20564;42.902;25.336;2023-12-20T00:31:03;0.00;;;0.00;;
34296;SDS011;20564;42.902;25.336;2023-12-20T00:35:58;0.08;;;0.08;;
34296;SDS011;20564;42.902;25.336;2023-12-20T00:38:26;0.00;;;0.00;;
34296;SDS011;20564;42.902;25.336;2023-12-20T00:40:56;0.10;;;0.10;;
34296;SDS011;20564;42.902;25.336;2023-12-20T00:45:51;0.00;;;0.00;;
34296;SDS011;20564;42.902;25.336;2023-12-20T00:48:19;0.00;;;0.00;;
34296;SDS011;20564;42.902;25.336;2023-12-20T00:50:47;2.27;;;0.83;;
34296;SDS011;20564;42.902;25.336;2023-12-20T00:53:14;0.00;;;0.00;;
34296;SDS011;20564;42.902;25.336;2023-12-20T00:55:41;0.00;;;0.00;;
34296;SDS011;20564;42.902;25.336;2023-12-20T00:58:10;0.10;;;0.10;;
34296;SDS011;20564;42.902;25.336;2023-12-20T01:00:38;0.50;;;0.50;;
34296;SDS011;20564;42.902;25.336;2023-12-20T01:03:09;0.00;;;0.00;;
34296;SDS011;20564;42.902;25.336;2023-12-20T01:05:36;0.00;;;0.00;;
34296;SDS011;20564;42.902;25.336;2023-12-20T01:08:06;0.00;;;0.00;;
34296;SDS011;20564;42.902;25.336;2023-12-20T01:10:33;0.00;;;0.00;;
34296;SDS011;20564;42.902;25.336;2023-12-20T01:13:00;0.15;;;0.08;;
34296;SDS011;20564;42.902;25.336;2023-12-20T01:15:27;0.50;;;0.50;;
34296;SDS011;20564;42.902;25.336;2023-12-20T01:18:00;0.52;;;0.45;;
34296;SDS011;20564;42.902;25.336;2023-12-20T01:20:37;0.00;;;0.00;;
34296;SDS011;20564;42.902;25.336;2023-12-20T01:23:04;0.35;;;0.32;;
34296;SDS011;20564;42.902;25.336;2023-12-20T01:25:31;0.00;;;0.00;;
34296;SDS011;20564;42.902;25.336;2023-12-20T01:27:59;3.00;;;0.28;;
34296;SDS011;20564;42.902;25.336;2023-12-20T01:30:27;0.57;;;0.55;;
34296;SDS011;20564;42.902;25.336;2023-12-20T01:32:57;0.28;;;0.20;;
34296;SDS011;20564;42.902;25.336;2023-12-20T01:35:26;0.60;;;0.53;;
34296;SDS011;20564;42.902;25.336;2023-12-20T01:37:56;0.10;;;0.10;;
34296;SDS011;20564;42.902;25.336;2023-12-20T01:40:23;0.80;;;0.63;;
34296;SDS011;20564;42.902;25.336;2023-12-20T01:43:01;0.10;;;0.10;;
34296;SDS011;20564;42.902;25.336;2023-12-20T01:45:42;0.22;;;0.22;;
34296;SDS011;20564;42.902;25.336;2023-12-20T01:48:09;7.43;;;2.13;;
34296;SDS011;20564;42.902;25.336;2023-12-20T01:50:37;0.30;;;0.27;;
34296;SDS011;20564;42.902;25.336;2023-12-20T01:53:05;0.00;;;0.00;;
34296;SDS011;20564;42.902;25.336;2023-12-20T01:55:41;0.00;;;0.00;;
34296;SDS011;20564;42.902;25.336;2023-12-20T01:58:12;0.25;;;0.25;;
34296;SDS011;20564;42.902;25.336;2023-12-20T02:00:40;0.00;;;0.00;;
34296;SDS011;20564;42.902;25.336;2023-12-20T02:03:07;0.00;;;0.00;;
34296;SDS011;20564;42.902;25.336;2023-12-20T02:05:35;2.38;;;1.23;;
34296;SDS011;20564;42.902;25.336;2023-12-20T02:08:03;0.00;;;0.00;;
34296;SDS011;20564;42.902;25.336;2023-12-20T02:10:34;0.73;;;0.45;;
34296;SDS011;20564;42.902;25.336;2023-12-20T02:13:01;0.00;;;0.00;;
34296;SDS011;20564;42.902;25.336;2023-12-20T02:15:28;0.50;;;0.35;;
34296;SDS011;20564;42.902;25.336;2023-12-20T02:17:55;0.50;;;0.50;;
34296;SDS011;20564;42.902;25.336;2023-12-20T02:20:22;0.40;;;0.35;;
34296;SDS011;20564;42.902;25.336;2023-12-20T02:22:49;0.20;;;0.20;;
34296;SDS011;20564;42.902;25.336;2023-12-20T02:25:16;0.10;;;0.10;;
34296;SDS011;20564;42.902;25.336;2023-12-20T02:27:43;1.47;;;0.67;;
34296;SDS011;20564;42.902;25.336;2023-12-20T02:30:10;0.20;;;0.20;;
34296;SDS011;20564;42.902;25.336;2023-12-20T02:32:37;0.45;;;0.25;;
34296;SDS011;20564;42.902;25.336;2023-12-20T02:35:07;0.00;;;0.00;;
34296;SDS011;20564;42.902;25.336;2023-12-20T02:37:34;0.00;;;0.00;;
34296;SDS011;20564;42.902;25.336;2023-12-20T02:40:01;0.13;;;0.13;;
34296;SDS011;20564;42.902;25.336;2023-12-20T02:42:30;0.25;;;0.25;;
34296;SDS011;20564;42.902;25.336;2023-12-20T02:44:57;0.67;;;0.43;;
34296;SDS011;20564;42.902;25.336;2023-12-20T02:47:24;0.00;;;0.00;;
34296;SDS011;20564;42.902;25.336;2023-12-20T02:49:51;0.00;;;0.00;;
34296;SDS011;20564;42.902;25.336;2023-12-20T02:52:19;0.57;;;0.30;;
34296;SDS011;20564;42.902;25.336;2023-12-20T02:54:46;0.53;;;0.43;;
34296;SDS011;20564;42.902;25.336;2023-12-20T02:57:13;0.00;;;0.00;;
34296;SDS011;20564;42.902;25.336;2023-12-20T02:59:40;0.00;;;0.00;;
34296;SDS011;20564;42.902;25.336;2023-12-20T03:02:07;0.03;;;0.03;;
34296;SDS011;20564;42.902;25.336;2023-12-20T03:04:34;0.05;;;0.05;;
34296;SDS011;20564;42.902;25.336;2023-12-20T03:07:01;0.00;;;0.00;;
34296;SDS011;20564;42.902;25.336;2023-12-20T03:09:28;0.00;;;0.00;;
34296;SDS011;20564;42.902;25.336;2023-12-20T03:12:04;1.13;;;0.30;;
34296;SDS011;20564;42.902;25.336;2023-12-20T03:14:31;0.00;;;0.00;;
34296;SDS011;20564;42.902;25.336;2023-12-20T03:16:58;0.27;;;0.20;;
34296;SDS011;20564;42.902;25.336;2023-12-20T03:19:26;0.37;;;0.20;;
34296;SDS011;20564;42.902;25.336;2023-12-20T03:21:53;0.63;;;0.57;;
34296;SDS011;20564;42.902;25.336;2023-12-20T03:24:20;0.52;;;0.38;;
34296;SDS011;20564;42.902;25.336;2023-12-20T03:26:47;0.13;;;0.13;;
34296;SDS011;20564;42.902;25.336;2023-12-20T03:29:14;0.77;;;0.28;;
34296;SDS011;20564;42.902;25.336;2023-12-20T03:31:41;0.00;;;0.00;;
34296;SDS011;20564;42.902;25.336;2023-12-20T03:34:08;0.07;;;0.07;;
34296;SDS011;20564;42.902;25.336;2023-12-20T03:36:35;0.05;;;0.05;;
34296;SDS011;20564;42.902;25.336;2023-12-20T03:39:02;0.20;;;0.20;;
34296;SDS011;20564;42.902;25.336;2023-12-20T03:41:29;0.00;;;0.00;;
34296;SDS011;20564;42.902;25.336;2023-12-20T03:43:56;0.43;;;0.43;;
34296;SDS011;20564;42.902;25.336;2023-12-20T03:46:23;0.00;;;0.00;;
34296;SDS011;20564;42.902;25.336;2023-12-20T03:48:49;0.03;;;0.03;;
34296;SDS011;20564;42.902;25.336;2023-12-20T03:51:17;0.65;;;0.47;;
34296;SDS011;20564;42.902;25.336;2023-12-20T03:53:43;0.00;;;0.00;;
34296;SDS011;20564;42.902;25.336;2023-12-20T03:56:10;0.00;;;0.00;;
34296;SDS011;20564;42.902;25.336;2023-12-20T03:58:37;0.00;;;0.00;;
34296;SDS011;20564;42.902;25.336;2023-12-20T04:01:08;0.00;;;0.00;;
34296;SDS011;20564;42.902;25.336;2023-12-20T04:03:37;0.50;;;0.47;;
34296;SDS011;20564;42.902;25.336;2023-12-20T04:06:05;0.00;;;0.00;;
34296;SDS011;20564;42.902;25.336;2023-12-20T04:08:32;0.00;;;0.00;;
34296;SDS011;20564;42.902;25.336;2023-12-20T04:10:59;0.17;;;0.17;;
34296;SDS011;20564;42.902;25.336;2023-12-20T04:13:27;0.13;;;0.10;;
34296;SDS011;20564;42.902;25.336;2023-12-20T04:15:54;0.00;;;0.00;;
34296;SDS011;20564;42.902;25.336;2023-12-20T04:18:21;0.00;;;0.00;;
34296;SDS011;20564;42.902;25.336;2023-12-20T04:20:48;0.43;;;0.43;;
34296;SDS011;20564;42.902;25.336;2023-12-20T04:23:16;0.10;;;0.10;;
34296;SDS011;20564;42.902;25.336;2023-12-20T04:25:43;0.50;;;0.40;;
34296;SDS011;20564;42.902;25.336;2023-12-20T04:28:10;0.97;;;0.87;;
34296;SDS011;20564;42.902;25.336;2023-12-20T04:30:37;0.00;;;0.00;;
34296;SDS011;20564;42.902;25.336;2023-12-20T04:33:04;0.00;;;0.00;;
34296;SDS011;20564;42.902;25.336;2023-12-20T04:35:34;0.00;;;0.00;;
34296;SDS011;20564;42.902;25.336;2023-12-20T04:38:12;0.77;;;0.67;;
34296;SDS011;20564;42.902;25.336;2023-12-20T04:40:42;0.13;;;0.13;;
34296;SDS011;20564;42.902;25.336;2023-12-20T04:43:09;0.40;;;0.37;;
34296;SDS011;20564;42.902;25.336;2023-12-20T04:45:36;1.58;;;0.55;;
34296;SDS011;20564;42.902;25.336;2023-12-20T04:48:03;1.70;;;1.17;;
34296;SDS011;20564;42.902;25.336;2023-12-20T04:50:31;0.82;;;0.68;;
34296;SDS011;20564;42.902;25.336;2023-12-20T04:52:58;0.10;;;0.10;;
34296;SDS011;20564;42.902;25.336;2023-12-20T04:55:25;0.55;;;0.35;;
34296;SDS011;20564;42.902;25.336;2023-12-20T04:57:52;0.00;;;0.00;;
34296;SDS011;20564;42.902;25.336;2023-12-20T05:00:19;0.00;;;0.00;;
34296;SDS011;20564;42.902;25.336;2023-12-20T05:02:46;0.00;;;0.00;;
34296;SDS011;20564;42.902;25.336;2023-12-20T05:05:13;0.35;;;0.15;;
34296;SDS011;20564;42.902;25.336;2023-12-20T05:07:41;0.00;;;0.00;;
34296;SDS011;20564;42.902;25.336;2023-12-20T05:10:09;0.10;;;0.10;;
34296;SDS011;20564;42.902;25.336;2023-12-20T05:12:36;0.15;;;0.08;;
34296;SDS011;20564;42.902;25.336;2023-12-20T05:15:04;0.00;;;0.00;;
34296;SDS011;20564;42.902;25.336;2023-12-20T05:17:34;0.10;;;0.10;;
34296;SDS011;20564;42.902;25.336;2023-12-20T05:20:01;0.00;;;0.00;;
34296;SDS011;20564;42.902;25.336;2023-12-20T05:22:29;2.20;;;0.47;;
34296;SDS011;20564;42.902;25.336;2023-12-20T05:24:55;0.00;;;0.00;;
34296;SDS011;20564;42.902;25.336;2023-12-20T05:27:22;0.00;;;0.00;;
34296;SDS011;20564;42.902;25.336;2023-12-20T05:29:49;0.10;;;0.10;;
34296;SDS011;20564;42.902;25.336;2023-12-20T05:32:16;0.20;;;0.20;;
34296;SDS011;20564;42.902;25.336;2023-12-20T05:34:43;0.23;;;0.20;;
34296;SDS011;20564;42.902;25.336;2023-12-20T05:37:14;0.40;;;0.33;;
34296;SDS011;20564;42.902;25.336;2023-12-20T05:39:44;0.50;;;0.30;;
34296;SDS011;20564;42.902;25.336;2023-12-20T05:42:17;0.10;;;0.10;;
34296;SDS011;20564;42.902;25.336;2023-12-20T05:44:45;0.00;;;0.00;;
34296;SDS011;20564;42.902;25.336;2023-12-20T05:47:12;0.43;;;0.43;;
34296;SDS011;20564;42.902;25.336;2023-12-20T05:49:39;2.13;;;0.40;;
34296;SDS011;20564;42.902;25.336;2023-12-20T05:52:09;0.00;;;0.00;;
34296;SDS011;20564;42.902;25.336;2023-12-20T05:54:43;0.65;;;0.50;;
34296;SDS011;20564;42.902;25.336;2023-12-20T05:57:10;0.10;;;0.10;;
34296;SDS011;20564;42.902;25.336;2023-12-20T05:59:50;0.10;;;0.10;;
34296;SDS011;20564;42.902;25.336;2023-12-20T06:02:17;0.17;;;0.17;;
34296;SDS011;20564;42.902;25.336;2023-12-20T06:04:44;0.13;;;0.13;;
34296;SDS011;20564;42.902;25.336;2023-12-20T06:07:12;0.55;;;0.47;;
34296;SDS011;20564;42.902;25.336;2023-12-20T06:09:39;1.98;;;1.80;;
34296;SDS011;20564;42.902;25.336;2023-12-20T06:12:07;0.30;;;0.30;;
34296;SDS011;20564;42.902;25.336;2023-12-20T06:14:34;0.50;;;0.47;;
34296;SDS011;20564;42.902;25.336;2023-12-20T06:17:01;0.10;;;0.10;;
34296;SDS011;20564;42.902;25.336;2023-12-20T06:19:28;1.15;;;0.52;;
34296;SDS011;20564;42.902;25.336;2023-12-20T06:21:56;0.10;;;0.10;;
34296;SDS011;20564;42.902;25.336;2023-12-20T06:24:23;0.45;;;0.32;;
34296;SDS011;20564;42.902;25.336;2023-12-20T06:26:54;0.60;;;0.60;;
34296;SDS011;20564;42.902;25.336;2023-12-20T06:29:22;0.45;;;0.30;;
34296;SDS011;20564;42.902;25.336;2023-12-20T06:31:49;1.20;;;0.63;;
34296;SDS011;20564;42.902;25.336;2023-12-20T06:34:16;0.93;;;0.70;;
34296;SDS011;20564;42.902;25.336;2023-12-20T06:36:43;2.33;;;1.27;;
34296;SDS011;20564;42.902;25.336;2023-12-20T06:39:10;1.13;;;1.02;;
34296;SDS011;20564;42.902;25.336;2023-12-20T06:41:39;0.05;;;0.05;;
34296;SDS011;20564;42.902;25.336;2023-12-20T06:44:06;0.38;;;0.35;;
34296;SDS011;20564;42.902;25.336;2023-12-20T06:46:33;0.15;;;0.15;;
34296;SDS011;20564;42.902;25.336;2023-12-20T06:49:00;0.93;;;0.80;;
34296;SDS011;20564;42.902;25.336;2023-12-20T06:51:27;0.60;;;0.43;;
34296;SDS011;20564;42.902;25.336;2023-12-20T06:53:54;1.57;;;1.00;;
34296;SDS011;20564;42.902;25.336;2023-12-20T06:56:21;0.63;;;0.50;;
34296;SDS011;20564;42.902;25.336;2023-12-20T06:58:50;1.30;;;0.88;;
34296;SDS011;20564;42.902;25.336;2023-12-20T07:01:17;0.10;;;0.10;;
34296;SDS011;20564;42.902;25.336;2023-12-20T07:03:44;2.50;;;1.60;;
34296;SDS011;20564;42.902;25.336;2023-12-20T07:06:12;0.32;;;0.25;;
34296;SDS011;20564;42.902;25.336;2023-12-20T07:08:49;1.48;;;1.05;;
34296;SDS011;20564;42.902;25.336;2023-12-20T07:11:24;1.17;;;1.10;;
34296;SDS011;20564;42.902;25.336;2023-12-20T07:13:58;2.05;;;1.50;;
34296;SDS011;20564;42.902;25.336;2023-12-20T07:16:33;1.08;;;0.85;;
34296;SDS011;20564;42.902;25.336;2023-12-20T07:19:01;1.00;;;0.50;;
34296;SDS011;20564;42.902;25.336;2023-12-20T07:21:38;0.93;;;0.63;;
34296;SDS011;20564;42.902;25.336;2023-12-20T07:24:05;1.60;;;0.75;;
34296;SDS011;20564;42.902;25.336;2023-12-20T07:26:32;0.70;;;0.67;;
34296;SDS011;20564;42.902;25.336;2023-12-20T07:29:07;0.13;;;0.13;;
34296;SDS011;20564;42.902;25.336;2023-12-20T07:31:34;1.05;;;0.95;;
34296;SDS011;20564;42.902;25.336;2023-12-20T07:34:16;0.40;;;0.30;;
34296;SDS011;20564;42.902;25.336;2023-12-20T07:43:09;0.47;;;0.20;;
34296;SDS011;20564;42.902;25.336;2023-12-20T07:45:30;0.95;;;0.32;;
34296;SDS011;20564;42.902;25.336;2023-12-20T07:47:57;0.98;;;0.75;;
34296;SDS011;20564;42.902;25.336;2023-12-20T07:50:38;6.93;;;2.67;;
34296;SDS011;20564;42.902;25.336;2023-12-20T07:53:05;1.40;;;1.20;;
34296;SDS011;20564;42.902;25.336;2023-12-20T07:55:32;0.85;;;0.85;;
34296;SDS011;20564;42.902;25.336;2023-12-20T07:58:00;1.42;;;1.13;;
34296;SDS011;20564;42.902;25.336;2023-12-20T08:00:27;1.20;;;1.10;;
34296;SDS011;20564;42.902;25.336;2023-12-20T08:02:57;1.17;;;0.50;;
34296;SDS011;20564;42.902;25.336;2023-12-20T08:05:30;2.47;;;1.58;;
34296;SDS011;20564;42.902;25.336;2023-12-20T08:08:10;5.22;;;2.53;;
34296;SDS011;20564;42.902;25.336;2023-12-20T08:10:37;2.60;;;1.30;;
34296;SDS011;20564;42.902;25.336;2023-12-20T08:13:04;3.65;;;2.30;;
34296;SDS011;20564;42.902;25.336;2023-12-20T08:15:31;3.72;;;2.35;;
34296;SDS011;20564;42.902;25.336;2023-12-20T08:18:07;0.93;;;0.77;;
34296;SDS011;20564;42.902;25.336;2023-12-20T08:20:34;1.40;;;1.30;;
34296;SDS011;20564;42.902;25.336;2023-12-20T08:23:06;2.20;;;1.65;;
34296;SDS011;20564;42.902;25.336;2023-12-20T08:25:33;7.75;;;2.65;;
34296;SDS011;20564;42.902;25.336;2023-12-20T08:28:00;3.15;;;2.05;;
34296;SDS011;20564;42.902;25.336;2023-12-20T08:30:28;2.25;;;1.73;;
34296;SDS011;20564;42.902;25.336;2023-12-20T08:32:56;3.15;;;1.55;;
34296;SDS011;20564;42.902;25.336;2023-12-20T08:35:26;1.75;;;1.27;;
34296;SDS011;20564;42.902;25.336;2023-12-20T08:37:53;4.85;;;2.78;;
34296;SDS011;20564;42.902;25.336;2023-12-20T08:40:20;2.42;;;1.95;;
34296;SDS011;20564;42.902;25.336;2023-12-20T08:42:47;7.97;;;2.15;;
34296;SDS011;20564;42.902;25.336;2023-12-20T08:45:17;2.72;;;2.03;;
34296;SDS011;20564;42.902;25.336;2023-12-20T08:47:45;2.25;;;2.05;;
34296;SDS011;20564;42.902;25.336;2023-12-20T08:50:12;2.10;;;1.92;;
34296;SDS011;20564;42.902;25.336;2023-12-20T08:52:39;4.40;;;3.33;;
34296;SDS011;20564;42.902;25.336;2023-12-20T08:55:06;4.75;;;3.45;;
34296;SDS011;20564;42.902;25.336;2023-12-20T09:00:03;4.68;;;3.50;;
34296;SDS011;20564;42.902;25.336;2023-12-20T09:02:33;4.35;;;3.33;;
34296;SDS011;20564;42.902;25.336;2023-12-20T09:05:02;17.92;;;6.50;;
34296;SDS011;20564;42.902;25.336;2023-12-20T09:07:30;17.88;;;3.17;;
34296;SDS011;20564;42.902;25.336;2023-12-20T09:09:58;3.70;;;3.17;;
34296;SDS011;20564;42.902;25.336;2023-12-20T09:12:25;2.88;;;1.75;;
34296;SDS011;20564;42.902;25.336;2023-12-20T09:14:52;2.90;;;2.33;;
34296;SDS011;20564;42.902;25.336;2023-12-20T09:17:22;4.45;;;3.42;;
34296;SDS011;20564;42.902;25.336;2023-12-20T09:19:49;7.53;;;3.33;;
34296;SDS011;20564;42.902;25.336;2023-12-20T09:22:19;7.05;;;2.50;;
34296;SDS011;20564;42.902;25.336;2023-12-20T09:24:46;3.40;;;2.38;;
34296;SDS011;20564;42.902;25.336;2023-12-20T09:27:13;2.60;;;2.17;;
34296;SDS011;20564;42.902;25.336;2023-12-20T09:29:40;4.83;;;3.10;;
34296;SDS011;20564;42.902;25.336;2023-12-20T09:32:07;3.90;;;2.88;;
34296;SDS011;20564;42.902;25.336;2023-12-20T09:34:34;4.00;;;2.65;;
34296;SDS011;20564;42.902;25.336;2023-12-20T09:37:01;5.03;;;4.47;;
34296;SDS011;20564;42.902;25.336;2023-12-20T09:42:01;4.82;;;1.58;;
34296;SDS011;20564;42.902;25.336;2023-12-20T09:44:30;3.25;;;2.33;;
34296;SDS011;20564;42.902;25.336;2023-12-20T09:49:25;5.57;;;3.17;;
34296;SDS011;20564;42.902;25.336;2023-12-20T09:51:54;4.38;;;2.25;;
34296;SDS011;20564;42.902;25.336;2023-12-20T09:56:49;2.17;;;1.52;;
34296;SDS011;20564;42.902;25.336;2023-12-20T09:59:16;4.32;;;1.40;;
34296;SDS011;20564;42.902;25.336;2023-12-20T10:01:43;3.75;;;1.88;;
34296;SDS011;20564;42.902;25.336;2023-12-20T10:04:11;7.82;;;3.97;;
34296;SDS011;20564;42.902;25.336;2023-12-20T10:06:55;2.35;;;1.17;;
34296;SDS011;20564;42.902;25.336;2023-12-20T10:09:24;1.15;;;1.05;;
34296;SDS011;20564;42.902;25.336;2023-12-20T10:11:53;2.45;;;1.20;;
34296;SDS011;20564;42.902;25.336;2023-12-20T10:14:21;8.73;;;2.47;;
34296;SDS011;20564;42.902;25.336;2023-12-20T10:16:49;2.08;;;1.17;;
34296;SDS011;20564;42.902;25.336;2023-12-20T10:19:16;3.63;;;1.63;;
34296;SDS011;20564;42.902;25.336;2023-12-20T10:21:45;4.03;;;2.72;;
34296;SDS011;20564;42.902;25.336;2023-12-20T10:24:16;3.28;;;1.27;;
34296;SDS011;20564;42.902;25.336;2023-12-20T10:26:44;4.25;;;2.47;;
34296;SDS011;20564;42.902;25.336;2023-12-20T10:29:11;3.40;;;2.15;;
34296;SDS011;20564;42.902;25.336;2023-12-20T10:31:38;6.27;;;3.50;;
34296;SDS011;20564;42.902;25.336;2023-12-20T10:34:09;3.47;;;2.15;;
34296;SDS011;20564;42.902;25.336;2023-12-20T10:36:36;2.45;;;1.92;;
34296;SDS011;20564;42.902;25.336;2023-12-20T10:39:03;3.17;;;2.03;;
34296;SDS011;20564;42.902;25.336;2023-12-20T10:41:35;2.20;;;1.35;;
34296;SDS011;20564;42.902;25.336;2023-12-20T10:44:08;4.07;;;2.78;;
34296;SDS011;20564;42.902;25.336;2023-12-20T10:46:40;2.25;;;1.75;;
34296;SDS011;20564;42.902;25.336;2023-12-20T10:49:13;1.05;;;0.93;;
34296;SDS011;20564;42.902;25.336;2023-12-20T10:54:08;3.42;;;2.58;;
34296;SDS011;20564;42.902;25.336;2023-12-20T10:56:35;0.90;;;0.87;;
34296;SDS011;20564;42.902;25.336;2023-12-20T10:59:04;3.08;;;1.70;;
34296;SDS011;20564;42.902;25.336;2023-12-20T11:01:36;2.15;;;1.40;;
34296;SDS011;20564;42.902;25.336;2023-12-20T11:04:08;2.28;;;1.23;;
34296;SDS011;20564;42.902;25.336;2023-12-20T11:06:56;7.13;;;1.95;;
34296;SDS011;20564;42.902;25.336;2023-12-20T11:14:56;2.20;;;1.35;;
34296;SDS011;20564;42.902;25.336;2023-12-20T11:17:29;3.97;;;2.15;;
34296;SDS011;20564;42.902;25.336;2023-12-20T11:22:26;4.07;;;2.08;;
34296;SDS011;20564;42.902;25.336;2023-12-20T11:25:03;2.78;;;1.70;;
34296;SDS011;20564;42.902;25.336;2023-12-20T11:27:31;1.65;;;1.40;;
34296;SDS011;20564;42.902;25.336;2023-12-20T11:29:58;1.92;;;1.77;;
34296;SDS011;20564;42.902;25.336;2023-12-20T11:32:27;1.55;;;1.17;;
34296;SDS011;20564;42.902;25.336;2023-12-20T11:35:39;4.07;;;2.25;;
34296;SDS011;20564;42.902;25.336;2023-12-20T11:37:47;1.42;;;0.80;;
34296;SDS011;20564;42.902;25.336;2023-12-20T11:40:15;3.97;;;1.90;;
34296;SDS011;20564;42.902;25.336;2023-12-20T11:42:44;0.70;;;0.70;;
34296;SDS011;20564;42.902;25.336;2023-12-20T11:45:19;2.30;;;1.60;;
34296;SDS011;20564;42.902;25.336;2023-12-20T11:47:49;4.43;;;2.58;;
34296;SDS011;20564;42.902;25.336;2023-12-20T11:50:18;9.30;;;4.18;;
34296;SDS011;20564;42.902;25.336;2023-12-20T11:52:46;4.30;;;1.95;;
34296;SDS011;20564;42.902;25.336;2023-12-20T11:55:13;1.85;;;1.27;;
34296;SDS011;20564;42.902;25.336;2023-12-20T11:57:41;3.10;;;2.13;;
34296;SDS011;20564;42.902;25.336;2023-12-20T12:00:10;3.42;;;1.98;;
34296;SDS011;20564;42.902;25.336;2023-12-20T12:02:37;3.97;;;2.65;;
34296;SDS011;20564;42.902;25.336;2023-12-20T12:05:04;7.28;;;2.97;;
34296;SDS011;20564;42.902;25.336;2023-12-20T12:07:33;3.15;;;2.63;;
34296;SDS011;20564;42.902;25.336;2023-12-20T12:10:00;3.80;;;2.30;;
34296;SDS011;20564;42.902;25.336;2023-12-20T12:12:28;7.22;;;2.67;;
34296;SDS011;20564;42.902;25.336;2023-12-20T12:14:56;2.85;;;1.55;;
34296;SDS011;20564;42.902;25.336;2023-12-20T12:17:24;4.53;;;2.97;;
34296;SDS011;20564;42.902;25.336;2023-12-20T12:19:52;7.75;;;3.63;;
34296;SDS011;20564;42.902;25.336;2023-12-20T12:22:32;7.15;;;2.05;;
34296;SDS011;20564;42.902;25.336;2023-12-20T12:25:08;2.90;;;2.25;;
34296;SDS011;20564;42.902;25.336;2023-12-20T12:27:41;2.30;;;1.45;;
34296;SDS011;20564;42.902;25.336;2023-12-20T12:30:09;9.95;;;2.97;;
34296;SDS011;20564;42.902;25.336;2023-12-20T12:32:44;3.92;;;2.00;;
34296;SDS011;20564;42.902;25.336;2023-12-20T12:35:11;2.20;;;1.65;;
34296;SDS011;20564;42.902;25.336;2023-12-20T12:37:38;8.23;;;3.65;;
34296;SDS011;20564;42.902;25.336;2023-12-20T12:42:37;1.83;;;1.08;;
34296;SDS011;20564;42.902;25.336;2023-12-20T12:45:04;5.03;;;2.15;;
34296;SDS011;20564;42.902;25.336;2023-12-20T12:50:01;2.90;;;1.75;;
34296;SDS011;20564;42.902;25.336;2023-12-20T12:52:29;2.72;;;2.00;;
34296;SDS011;20564;42.902;25.336;2023-12-20T12:54:57;2.50;;;1.70;;
34296;SDS011;20564;42.902;25.336;2023-12-20T12:57:25;1.48;;;1.33;;
34296;SDS011;20564;42.902;25.336;2023-12-20T12:59:51;4.63;;;3.10;;
34296;SDS011;20564;42.902;25.336;2023-12-20T13:02:18;1.55;;;1.15;;
34296;SDS011;20564;42.902;25.336;2023-12-20T13:04:45;4.22;;;2.53;;
34296;SDS011;20564;42.902;25.336;2023-12-20T13:07:13;1.05;;;1.00;;
34296;SDS011;20564;42.902;25.336;2023-12-20T13:09:40;9.30;;;1.97;;
34296;SDS011;20564;42.902;25.336;2023-12-20T13:12:07;3.10;;;1.50;;
34296;SDS011;20564;42.902;25.336;2023-12-20T13:14:34;2.42;;;2.08;;
34296;SDS011;20564;42.902;25.336;2023-12-20T13:17:04;4.93;;;2.78;;
34296;SDS011;20564;42.902;25.336;2023-12-20T13:19:31;2.33;;;2.13;;
34296;SDS011;20564;42.902;25.336;2023-12-20T13:21:58;1.60;;;1.23;;
34296;SDS011;20564;42.902;25.336;2023-12-20T13:24:26;1.90;;;1.45;;
34296;SDS011;20564;42.902;25.336;2023-12-20T13:26:52;1.48;;;1.27;;
34296;SDS011;20564;42.902;25.336;2023-12-20T13:29:19;0.50;;;0.50;;
34296;SDS011;20564;42.902;25.336;2023-12-20T13:31:49;2.92;;;1.95;;
34296;SDS011;20564;42.902;25.336;2023-12-20T13:34:16;2.30;;;1.67;;
34296;SDS011;20564;42.902;25.336;2023-12-20T13:36:43;3.72;;;1.92;;
34296;SDS011;20564;42.902;25.336;2023-12-20T13:39:14;3.72;;;1.60;;
34296;SDS011;20564;42.902;25.336;2023-12-20T13:41:42;12.13;;;1.95;;
34296;SDS011;20564;42.902;25.336;2023-12-20T13:44:09;2.03;;;1.35;;
34296;SDS011;20564;42.902;25.336;2023-12-20T13:46:36;6.15;;;1.02;;
34296;SDS011;20564;42.902;25.336;2023-12-20T13:49:03;12.82;;;1.90;;
34296;SDS011;20564;42.902;25.336;2023-12-20T13:51:31;1.90;;;1.55;;
34296;SDS011;20564;42.902;25.336;2023-12-20T13:53:58;0.52;;;0.40;;
34296;SDS011;20564;42.902;25.336;2023-12-20T13:56:25;1.38;;;1.20;;
34296;SDS011;20564;42.902;25.336;2023-12-20T13:58:52;2.65;;;1.33;;
34296;SDS011;20564;42.902;25.336;2023-12-20T14:01:23;0.57;;;0.57;;
34296;SDS011;20564;42.902;25.336;2023-12-20T14:06:17;1.13;;;0.97;;
34296;SDS011;20564;42.902;25.336;2023-12-20T14:08:44;1.23;;;0.88;;
34296;SDS011;20564;42.902;25.336;2023-12-20T14:11:11;0.22;;;0.22;;
34296;SDS011;20564;42.902;25.336;2023-12-20T14:13:38;0.98;;;0.65;;
34296;SDS011;20564;42.902;25.336;2023-12-20T14:16:06;1.35;;;1.17;;
34296;SDS011;20564;42.902;25.336;2023-12-20T14:18:32;4.38;;;1.08;;
34296;SDS011;20564;42.902;25.336;2023-12-20T14:21:00;0.20;;;0.20;;
34296;SDS011;20564;42.902;25.336;2023-12-20T14:23:26;1.88;;;0.77;;
34296;SDS011;20564;42.902;25.336;2023-12-20T14:25:53;0.47;;;0.43;;
34296;SDS011;20564;42.902;25.336;2023-12-20T14:28:22;0.98;;;0.73;;
34296;SDS011;20564;42.902;25.336;2023-12-20T14:30:49;0.35;;;0.35;;
34296;SDS011;20564;42.902;25.336;2023-12-20T14:33:16;2.10;;;1.20;;
34296;SDS011;20564;42.902;25.336;2023-12-20T14:35:44;7.25;;;0.55;;
34296;SDS011;20564;42.902;25.336;2023-12-20T14:38:11;0.70;;;0.63;;
34296;SDS011;20564;42.902;25.336;2023-12-20T14:40:41;0.22;;;0.22;;
34296;SDS011;20564;42.902;25.336;2023-12-20T14:43:08;0.30;;;0.25;;
34296;SDS011;20564;42.902;25.336;2023-12-20T14:45:38;0.28;;;0.28;;
34296;SDS011;20564;42.902;25.336;2023-12-20T14:48:05;0.73;;;0.50;;
34296;SDS011;20564;42.902;25.336;2023-12-20T14:50:33;0.93;;;0.77;;
34296;SDS011;20564;42.902;25.336;2023-12-20T14:53:05;0.10;;;0.10;;
34296;SDS011;20564;42.902;25.336;2023-12-20T14:55:42;0.70;;;0.22;;
34296;SDS011;20564;42.902;25.336;2023-12-20T14:58:11;0.85;;;0.75;;
34296;SDS011;20564;42.902;25.336;2023-12-20T15:00:57;0.32;;;0.28;;
34296;SDS011;20564;42.902;25.336;2023-12-20T15:03:24;2.50;;;1.30;;
34296;SDS011;20564;42.902;25.336;2023-12-20T15:05:52;1.08;;;0.70;;
34296;SDS011;20564;42.902;25.336;2023-12-20T15:08:22;0.57;;;0.55;;
34296;SDS011;20564;42.902;25.336;2023-12-20T15:10:55;0.95;;;0.80;;
34296;SDS011;20564;42.902;25.336;2023-12-20T15:13:22;1.00;;;0.67;;
34296;SDS011;20564;42.902;25.336;2023-12-20T15:15:49;1.35;;;0.95;;
34296;SDS011;20564;42.902;25.336;2023-12-20T15:18:16;0.50;;;0.50;;
34296;SDS011;20564;42.902;25.336;2023-12-20T15:20:43;3.08;;;1.48;;